createdAt,value
2023-02-17T00:01:22.008Z,101769.91
2023-02-17T00:03:24.815Z,101772.59
2023-02-17T00:05:27.613Z,101774.47
2023-02-17T00:07:30.750Z,101767.34
2023-02-17T00:09:33.910Z,101756.50
2023-02-17T00:11:37.074Z,101757.50
2023-02-17T00:13:39.312Z,101760.22
2023-02-17T00:15:41.080Z,101757.34
2023-02-17T00:17:42.642Z,101755.66
2023-02-17T00:19:44.416Z,101751.25
2023-02-17T00:21:46.092Z,101749.38
2023-02-17T00:23:49.078Z,101732.44
2023-02-17T00:25:52.096Z,101741.44
2023-02-17T00:27:53.787Z,101744.28
2023-02-17T00:29:55.694Z,101738.03
2023-02-17T00:31:57.554Z,101748.88
2023-02-17T00:33:59.238Z,101743.44
2023-02-17T00:36:04.291Z,101736.34
2023-02-17T00:38:06.017Z,101737.34
2023-02-17T00:40:08.613Z,101740.06
2023-02-17T00:42:11.631Z,101731.94
2023-02-17T00:44:16.651Z,101736.50
2023-02-17T00:46:18.695Z,101736.50
2023-02-17T00:48:20.264Z,101724.81
2023-02-17T00:50:22.099Z,101716.53
2023-02-17T00:52:23.821Z,101715.69
2023-02-17T00:54:25.523Z,101713.97
2023-02-17T00:56:27.129Z,101717.53
2023-02-17T00:58:30.127Z,101718.53
2023-02-17T01:00:31.946Z,101716.69
2023-02-17T01:02:33.564Z,101711.44
2023-02-17T01:04:35.153Z,101711.25
2023-02-17T01:06:38.413Z,101706.84
2023-02-17T01:08:40.099Z,101714.16
2023-02-17T01:10:44.289Z,101702.28
2023-02-17T01:12:45.834Z,101698.72
2023-02-17T01:14:49.219Z,101702.47
2023-02-17T01:16:50.756Z,101694.50
2023-02-17T01:18:53.000Z,101696.19
2023-02-17T01:20:54.842Z,101688.22
2023-02-17T01:22:56.465Z,101687.56
2023-02-17T01:24:58.207Z,101684.84
2023-02-17T01:26:59.881Z,101668.75
2023-02-17T01:29:03.018Z,101673.31
2023-02-17T01:31:07.545Z,101654.34
2023-02-17T01:33:09.602Z,101651.84
2023-02-17T01:35:11.462Z,101646.75
2023-02-17T01:37:13.182Z,101637.94
2023-02-17T01:39:15.999Z,101640.66
2023-02-17T01:41:20.671Z,101637.94
2023-02-17T01:43:22.353Z,101628.09
2023-02-17T01:45:36.541Z,101624.56
2023-02-17T01:47:39.973Z,101618.47
2023-02-17T01:49:41.975Z,101610.53
2023-02-17T01:51:46.951Z,101607.81
2023-02-17T01:53:55.365Z,101602.41
2023-02-17T01:55:57.388Z,101600.84
2023-02-17T01:58:01.589Z,101590.03
2023-02-17T02:00:04.283Z,101584.78
2023-02-17T02:02:07.206Z,101583.44
2023-02-17T02:04:12.107Z,101580.38
2023-02-17T02:06:16.894Z,101581.56
2023-02-17T02:08:18.653Z,101579.88
2023-02-17T02:10:20.477Z,101569.88
2023-02-17T02:12:25.609Z,101572.75
2023-02-17T02:14:28.237Z,101571.91
2023-02-17T02:16:38.606Z,101571.06
2023-02-17T02:18:51.881Z,101559.56
2023-02-17T02:21:41.352Z,101563.63
2023-02-17T02:23:56.407Z,101564.81
2023-02-17T02:26:31.880Z,101552.09
2023-02-17T02:28:53.683Z,101544.16
2023-02-17T02:31:19.049Z,101537.03
2023-02-17T02:33:32.159Z,101541.59
2023-02-17T02:35:45.698Z,101529.94
2023-02-17T02:37:53.752Z,101523.69
2023-02-17T02:39:57.461Z,101529.41
2023-02-17T02:42:03.901Z,101519.28
2023-02-17T02:44:06.982Z,101522.00
2023-02-17T02:46:09.249Z,101509.28
2023-02-17T02:48:11.519Z,101511.16
2023-02-17T02:50:19.629Z,101499.47
2023-02-17T02:52:30.089Z,101485.94
2023-02-17T02:54:49.358Z,101483.06
2023-02-17T02:57:04.422Z,101474.25
2023-02-17T02:59:19.063Z,101473.41
2023-02-17T03:01:31.533Z,101472.22
2023-02-17T03:03:42.213Z,101468.84
2023-02-17T03:05:55.550Z,101465.97
2023-02-17T03:08:02.257Z,101451.72
2023-02-17T03:10:05.822Z,101438.38
2023-02-17T03:12:07.883Z,101439.03
2023-02-17T03:14:12.198Z,101426.69
2023-02-17T03:16:13.855Z,101432.78
2023-02-17T03:18:15.527Z,101431.91
2023-02-17T03:20:17.737Z,101429.22
2023-02-17T03:22:25.704Z,101427.34
2023-02-17T03:24:27.742Z,101423.81
2023-02-17T03:26:29.343Z,101421.28
2023-02-17T03:28:31.149Z,101430.06
2023-02-17T03:30:33.096Z,101430.06
2023-02-17T03:32:35.194Z,101431.91
2023-02-17T03:34:36.840Z,101429.06
2023-02-17T03:36:38.663Z,101419.91
2023-02-17T03:38:41.642Z,101418.06
2023-02-17T03:40:43.382Z,101412.66
2023-02-17T03:42:44.951Z,101415.16
2023-02-17T03:44:46.543Z,101409.75
2023-02-17T03:46:48.241Z,101401.81
2023-02-17T03:48:49.939Z,101412.44
2023-02-17T03:50:51.617Z,101402.31
2023-02-17T03:52:53.290Z,101406.88
2023-02-17T03:54:56.373Z,101391.63
2023-02-17T03:56:58.039Z,101400.41
2023-02-17T03:58:59.826Z,101398.56
2023-02-17T04:01:01.914Z,101409.22
2023-02-17T04:03:03.723Z,101394.00
2023-02-17T04:05:05.910Z,101404.66
2023-02-17T04:07:07.576Z,101410.72
2023-02-17T04:09:09.172Z,101407.88
2023-02-17T04:11:12.648Z,101403.28
2023-02-17T04:13:14.207Z,101403.28
2023-02-17T04:15:15.846Z,101401.25
2023-02-17T04:17:17.440Z,101402.25
2023-02-17T04:19:21.148Z,101391.41
2023-02-17T04:21:22.956Z,101387.69
2023-02-17T04:23:24.603Z,101388.38
2023-02-17T04:25:26.316Z,101387.34
2023-02-17T04:27:29.340Z,101388.19
2023-02-17T04:29:31.891Z,101381.75
2023-02-17T04:31:33.940Z,101375.50
2023-02-17T04:33:35.697Z,101369.91
2023-02-17T04:35:37.496Z,101372.44
2023-02-17T04:37:39.131Z,101372.44
2023-02-17T04:39:40.709Z,101371.41
2023-02-17T04:41:42.338Z,101372.25
2023-02-17T04:43:45.497Z,101374.78
2023-02-17T04:45:47.179Z,101372.91
2023-02-17T04:47:48.960Z,101351.44
2023-02-17T04:49:50.627Z,101359.22
2023-02-17T04:51:52.234Z,101347.34
2023-02-17T04:53:53.921Z,101345.66
2023-02-17T04:55:55.702Z,101345.66
2023-02-17T04:57:57.520Z,101344.66
2023-02-17T05:00:00.632Z,101350.06
2023-02-17T05:02:02.336Z,101357.16
2023-02-17T05:04:04.233Z,101356.13
2023-02-17T05:06:06.880Z,101347.00
2023-02-17T05:08:08.711Z,101338.88
2023-02-17T05:10:11.741Z,101334.31
2023-02-17T05:12:13.349Z,101326.16
2023-02-17T05:14:15.365Z,101329.53
2023-02-17T05:16:18.337Z,101319.53
2023-02-17T05:18:20.144Z,101324.75
2023-02-17T05:20:21.907Z,101322.91
2023-02-17T05:22:23.618Z,101317.31
2023-02-17T05:24:25.142Z,101315.25
2023-02-17T05:26:27.227Z,101308.19
2023-02-17T05:28:28.776Z,101302.56
2023-02-17T05:30:30.420Z,101304.09
2023-02-17T05:32:33.374Z,101307.63
2023-02-17T05:34:36.387Z,101303.03
2023-02-17T05:36:38.261Z,101296.44
2023-02-17T05:38:40.517Z,101291.84
2023-02-17T05:40:42.202Z,101291.66
2023-02-17T05:42:43.979Z,101289.97
2023-02-17T05:44:45.510Z,101280.81
2023-02-17T05:46:47.925Z,101276.91
2023-02-17T05:48:50.868Z,101261.50
2023-02-17T05:50:52.623Z,101264.19
2023-02-17T05:52:54.289Z,101258.63
2023-02-17T05:54:56.224Z,101256.75
2023-02-17T05:56:58.052Z,101265.53
2023-02-17T05:58:59.664Z,101263.66
2023-02-17T06:01:01.490Z,101272.44
2023-02-17T06:03:03.096Z,101266.22
2023-02-17T06:05:07.274Z,101258.72
2023-02-17T06:07:09.193Z,101253.31
2023-02-17T06:09:10.753Z,101246.03
2023-02-17T06:11:12.332Z,101239.22
2023-02-17T06:13:14.457Z,101234.63
2023-02-17T06:15:16.504Z,101236.31
2023-02-17T06:17:18.094Z,101236.16
2023-02-17T06:19:20.239Z,101233.28
2023-02-17T06:21:23.591Z,101232.22
2023-02-17T06:23:25.845Z,101230.38
2023-02-17T06:25:27.385Z,101232.91
2023-02-17T06:27:29.320Z,101235.41
2023-02-17T06:29:31.334Z,101226.09
2023-02-17T06:31:33.724Z,101219.63
2023-02-17T06:33:36.604Z,101215.91
2023-02-17T06:35:38.256Z,101215.72
2023-02-17T06:37:41.389Z,101209.25
2023-02-17T06:39:43.091Z,101213.50
2023-02-17T06:41:44.746Z,101203.28
2023-02-17T06:43:46.425Z,101197.88
2023-02-17T06:45:48.096Z,101208.34
2023-02-17T06:47:49.673Z,101199.84
2023-02-17T06:49:51.244Z,101209.00
2023-02-17T06:51:52.922Z,101200.50
2023-02-17T06:53:56.271Z,101202.00
2023-02-17T06:55:57.898Z,101189.28
2023-02-17T06:57:59.487Z,101197.25
2023-02-17T07:00:01.340Z,101205.19
2023-02-17T07:02:03.004Z,101206.69
2023-02-17T07:04:05.129Z,101205.84
2023-02-17T07:06:06.984Z,101193.97
2023-02-17T07:08:08.972Z,101185.63
2023-02-17T07:10:12.412Z,101183.59
2023-02-17T07:12:14.243Z,101179.84
2023-02-17T07:14:16.078Z,101181.69
2023-02-17T07:16:17.743Z,101183.22
2023-02-17T07:18:19.356Z,101171.34
2023-02-17T07:20:21.277Z,101169.44
2023-02-17T07:22:22.891Z,101172.00
2023-02-17T07:24:24.672Z,101160.13
2023-02-17T07:26:27.641Z,101138.22
2023-02-17T07:28:29.595Z,101146.19
2023-02-17T07:30:31.215Z,101144.47
2023-02-17T07:32:33.198Z,101152.25
2023-02-17T07:34:34.980Z,101148.69
2023-02-17T07:36:36.563Z,101145.63
2023-02-17T07:38:39.004Z,101148.13
2023-02-17T07:40:40.617Z,101150.66
2023-02-17T07:42:43.601Z,101153.16
2023-02-17T07:44:45.152Z,101145.88
2023-02-17T07:46:46.856Z,101141.97
2023-02-17T07:48:48.481Z,101131.28
2023-02-17T07:50:50.011Z,101124.63
2023-02-17T07:52:51.586Z,101118.19
2023-02-17T07:54:53.129Z,101110.50
2023-02-17T07:56:54.870Z,101114.25
2023-02-17T07:58:57.766Z,101113.03
2023-02-17T08:01:04.756Z,101116.38
2023-02-17T08:03:06.474Z,101101.81
2023-02-17T08:05:08.130Z,101092.63
2023-02-17T08:07:10.170Z,101099.72
2023-02-17T08:09:12.520Z,101093.94
2023-02-17T08:11:16.802Z,101078.47
2023-02-17T08:13:18.380Z,101077.25
2023-02-17T08:15:21.584Z,101077.25
2023-02-17T08:17:23.467Z,101075.19
2023-02-17T08:19:27.183Z,101064.16
2023-02-17T08:21:31.719Z,101060.19
2023-02-17T08:23:33.646Z,101061.69
2023-02-17T08:25:35.823Z,101048.78
2023-02-17T08:27:37.392Z,101045.84
2023-02-17T08:29:38.993Z,101051.94
2023-02-17T08:31:42.848Z,101044.44
2023-02-17T08:33:44.472Z,101034.22
2023-02-17T08:35:46.033Z,101020.25
2023-02-17T08:37:47.860Z,101020.09
2023-02-17T08:39:49.697Z,101025.31
2023-02-17T08:41:51.300Z,101013.41
2023-02-17T08:43:52.854Z,101014.88
2023-02-17T08:45:54.498Z,101005.06
2023-02-17T08:47:57.525Z,101003.00
2023-02-17T08:49:59.363Z,100995.69
2023-02-17T08:52:00.971Z,100995.88
2023-02-17T08:54:04.627Z,100986.72
2023-02-17T08:56:06.987Z,100986.31
2023-02-17T08:58:08.855Z,100982.75
2023-02-17T09:00:11.593Z,100985.06
2023-02-17T09:02:13.200Z,100984.25
2023-02-17T09:04:16.928Z,100975.06
2023-02-17T09:06:19.573Z,100966.72
2023-02-17T09:08:21.984Z,100961.28
2023-02-17T09:10:23.661Z,100961.91
2023-02-17T09:12:25.351Z,100965.28
2023-02-17T09:14:27.196Z,100943.56
2023-02-17T09:16:28.800Z,100950.66
2023-02-17T09:18:30.375Z,100947.75
2023-02-17T09:20:33.325Z,100941.28
2023-02-17T09:22:35.120Z,100932.75
2023-02-17T09:24:37.273Z,100925.63
2023-02-17T09:26:38.838Z,100921.03
2023-02-17T09:28:40.408Z,100911.63
2023-02-17T09:30:42.976Z,100920.44
2023-02-17T09:32:44.951Z,100905.84
2023-02-17T09:34:46.850Z,100893.91
2023-02-17T09:36:50.077Z,100890.16
2023-02-17T09:38:52.777Z,100885.38
2023-02-17T09:40:54.877Z,100868.88
2023-02-17T09:42:56.530Z,100870.56
2023-02-17T09:45:01.772Z,100864.09
2023-02-17T09:47:08.165Z,100863.03
2023-02-17T09:49:15.132Z,100854.69
2023-02-17T09:51:26.977Z,100854.28
2023-02-17T09:53:36.924Z,100846.75
2023-02-17T09:55:41.396Z,100843.84
2023-02-17T09:57:51.579Z,100829.63
2023-02-17T09:59:58.630Z,100830.25
2023-02-17T10:02:05.071Z,100816.50
2023-02-17T10:04:12.511Z,100793.69
2023-02-17T10:06:16.067Z,100806.47
2023-02-17T10:08:22.684Z,100803.53
2023-02-17T10:10:31.536Z,100796.84
2023-02-17T10:12:38.578Z,100797.91
2023-02-17T10:14:44.801Z,100799.78
2023-02-17T10:16:51.433Z,100789.94
2023-02-17T10:19:00.252Z,100788.69
2023-02-17T10:21:05.051Z,100783.25
2023-02-17T10:23:13.368Z,100784.31
2023-02-17T10:25:17.901Z,100773.22
2023-02-17T10:27:40.398Z,100767.19
2023-02-17T10:29:55.910Z,100770.94
2023-02-17T10:32:17.712Z,100753.78
2023-02-17T10:34:33.172Z,100754.63
2023-02-17T10:36:48.681Z,100742.31
2023-02-17T10:38:52.670Z,100736.03
2023-02-17T10:40:56.152Z,100733.13
2023-02-17T10:43:02.888Z,100726.84
2023-02-17T10:45:11.075Z,100720.16
2023-02-17T10:47:12.737Z,100716.41
2023-02-17T10:49:22.002Z,100702.63
2023-02-17T10:51:26.644Z,100699.66
2023-02-17T10:53:32.755Z,100694.22
2023-02-17T10:55:39.243Z,100680.25
2023-02-17T10:57:43.070Z,100673.97
2023-02-17T10:59:47.805Z,100651.41
2023-02-17T11:01:49.551Z,100656.41
2023-02-17T11:04:00.222Z,100657.03
2023-02-17T11:06:03.952Z,100642.41
2023-02-17T11:08:15.609Z,100643.25
2023-02-17T11:10:21.614Z,100632.59
2023-02-17T11:12:29.540Z,100638.63
2023-02-17T11:14:33.483Z,100628.81
2023-02-17T11:16:39.325Z,100628.44
2023-02-17T11:18:46.841Z,100631.56
2023-02-17T11:20:48.546Z,100633.22
2023-02-17T11:23:01.500Z,100632.84
2023-02-17T11:25:06.642Z,100625.72
2023-02-17T11:27:25.577Z,100618.41
2023-02-17T11:29:28.295Z,100611.69
2023-02-17T11:31:31.376Z,100604.38
2023-02-17T11:33:37.115Z,100593.91
2023-02-17T11:35:53.259Z,100589.09
2023-02-17T11:38:01.773Z,100583.66
2023-02-17T11:40:25.343Z,100576.97
2023-02-17T11:42:30.190Z,100575.09
2023-02-17T11:44:31.769Z,100572.13
2023-02-17T11:46:38.940Z,100589.28
2023-02-17T11:49:07.807Z,100595.34
2023-02-17T11:51:14.812Z,100589.91
2023-02-17T11:53:28.034Z,100576.09
2023-02-17T11:55:39.894Z,100579.44
2023-02-17T11:57:45.649Z,100566.69
2023-02-17T12:00:00.991Z,100563.97
2023-02-17T12:02:15.057Z,100565.66
2023-02-17T12:04:29.623Z,100562.72
2023-02-17T12:06:44.332Z,100558.72
2023-02-17T12:09:01.274Z,100558.53
2023-02-17T12:11:15.763Z,100549.31
2023-02-17T12:13:31.410Z,100557.25
2023-02-17T12:15:49.644Z,100549.09
2023-02-17T12:17:59.701Z,100540.72
2023-02-17T12:20:15.301Z,100540.50
2023-02-17T12:22:19.317Z,100532.53
2023-02-17T12:24:41.101Z,100530.22
2023-02-17T12:26:47.361Z,100519.34
2023-02-17T12:29:00.255Z,100517.25
2023-02-17T12:31:08.529Z,100519.16
2023-02-17T12:33:27.790Z,100522.28
2023-02-17T12:35:40.803Z,100514.75
2023-02-17T12:37:49.272Z,100510.94
2023-02-17T12:39:55.070Z,100509.31
2023-02-17T12:42:02.221Z,100495.47
2023-02-17T12:44:08.269Z,100490.44
2023-02-17T12:46:14.985Z,100494.84
2023-02-17T12:48:25.995Z,100487.28
2023-02-17T12:50:32.621Z,100477.88
2023-02-17T12:52:40.966Z,100487.66
2023-02-17T12:54:48.393Z,100470.94
2023-02-17T12:56:59.845Z,100480.53
2023-02-17T12:59:11.025Z,100479.69
2023-02-17T13:01:17.165Z,100485.97
2023-02-17T13:03:19.037Z,100479.50
2023-02-17T13:05:27.664Z,100495.00
2023-02-17T13:07:43.204Z,100498.13
2023-02-17T13:09:46.964Z,100482.81
2023-02-17T13:11:48.640Z,100498.94
2023-02-17T13:13:50.632Z,100483.22
2023-02-17T13:16:02.948Z,100467.53
2023-02-17T13:18:06.799Z,100467.53
2023-02-17T13:20:29.100Z,100465.81
2023-02-17T13:22:30.655Z,100477.97
2023-02-17T13:24:36.269Z,100464.97
2023-02-17T13:26:39.528Z,100453.88
2023-02-17T13:28:41.788Z,100450.91
2023-02-17T13:30:45.109Z,100454.72
2023-02-17T13:32:47.071Z,100452.59
2023-02-17T13:35:00.531Z,100463.88
2023-02-17T13:37:16.042Z,100455.94
2023-02-17T13:39:33.231Z,100450.66
2023-02-17T13:41:45.779Z,100444.38
2023-02-17T13:43:47.509Z,100429.13
2023-02-17T13:45:53.538Z,100436.22
2023-02-17T13:47:57.886Z,100428.88
2023-02-17T13:49:59.594Z,100436.59
2023-02-17T13:52:16.299Z,100433.66
2023-02-17T13:54:21.172Z,100428.03
2023-02-17T13:56:29.344Z,100415.00
2023-02-17T13:58:36.402Z,100424.00
2023-02-17T14:00:39.121Z,100416.69
2023-02-17T14:02:48.704Z,100427.13
2023-02-17T14:04:50.377Z,100418.75
2023-02-17T14:06:52.775Z,100413.31
2023-02-17T14:08:54.510Z,100400.50
2023-02-17T14:10:57.203Z,100403.00
2023-02-17T14:13:00.132Z,100390.22
2023-02-17T14:15:03.302Z,100397.34
2023-02-17T14:17:06.932Z,100392.94
2023-02-17T14:19:10.891Z,100418.31
2023-02-17T14:21:25.019Z,100409.06
2023-02-17T14:23:26.723Z,100410.72
2023-02-17T14:25:30.020Z,100411.34
2023-02-17T14:27:41.857Z,100432.06
2023-02-17T14:29:45.563Z,100423.50
2023-02-17T14:31:51.905Z,100422.47
2023-02-17T14:33:59.190Z,100405.91
2023-02-17T14:36:03.865Z,100422.84
2023-02-17T14:38:19.149Z,100413.63
2023-02-17T14:40:23.670Z,100403.56
2023-02-17T14:42:25.311Z,100410.66
2023-02-17T14:44:26.945Z,100390.56
2023-02-17T14:46:28.494Z,100402.28
2023-02-17T14:48:31.562Z,100396.00
2023-02-17T14:50:33.544Z,100381.56
2023-02-17T14:52:41.690Z,100383.00
2023-02-17T14:54:43.527Z,100380.28
2023-02-17T14:56:49.739Z,100381.09
2023-02-17T14:58:51.485Z,100367.47
2023-02-17T15:00:52.975Z,100368.31
2023-02-17T15:02:54.552Z,100372.72
2023-02-17T15:04:57.746Z,100379.22
2023-02-17T15:06:59.304Z,100385.50
2023-02-17T15:09:01.206Z,100372.94
2023-02-17T15:11:03.284Z,100383.81
2023-02-17T15:13:04.922Z,100384.06
2023-02-17T15:15:07.228Z,100377.56
2023-02-17T15:17:09.196Z,100372.31
2023-02-17T15:19:11.083Z,100366.50
2023-02-17T15:21:25.957Z,100377.19
2023-02-17T15:23:31.934Z,100365.66
2023-02-17T15:25:34.710Z,100365.44
2023-02-17T15:27:36.242Z,100375.50
2023-02-17T15:29:38.089Z,100369.22
2023-02-17T15:31:40.032Z,100359.81
2023-02-17T15:33:41.929Z,100386.22
2023-02-17T15:35:43.453Z,100371.94
2023-02-17T15:37:47.112Z,100362.09
2023-02-17T15:39:48.730Z,100377.00
2023-02-17T15:41:53.788Z,100370.25
2023-02-17T15:43:57.308Z,100370.50
2023-02-17T15:45:59.179Z,100387.66
2023-02-17T15:48:04.478Z,100365.06
2023-02-17T15:50:12.084Z,100373.00
2023-02-17T15:52:14.598Z,100350.22
2023-02-17T15:54:17.537Z,100353.53
2023-02-17T15:56:21.508Z,100360.47
2023-02-17T15:58:23.569Z,100368.06
2023-02-17T16:00:27.430Z,100367.22
2023-02-17T16:02:29.422Z,100356.78
2023-02-17T16:04:31.095Z,100348.81
2023-02-17T16:06:32.687Z,100364.72
2023-02-17T16:08:34.256Z,100356.16
2023-02-17T16:10:38.292Z,100368.13
2023-02-17T16:12:40.577Z,100355.31
2023-02-17T16:14:42.642Z,100343.81
2023-02-17T16:16:44.270Z,100357.03
2023-02-17T16:18:47.105Z,100358.34
2023-02-17T16:20:50.194Z,100353.94
2023-02-17T16:22:52.904Z,100361.72
2023-02-17T16:24:54.515Z,100351.66
2023-02-17T16:26:57.756Z,100370.31
2023-02-17T16:29:00.193Z,100361.31
2023-02-17T16:31:01.775Z,100363.22
2023-02-17T16:33:04.205Z,100412.41
2023-02-17T16:35:06.562Z,100391.72
2023-02-17T16:37:13.714Z,100393.81
2023-02-17T16:39:17.596Z,100415.41
2023-02-17T16:41:20.461Z,100406.41
2023-02-17T16:43:24.969Z,100447.25
2023-02-17T16:45:30.348Z,100413.81
2023-02-17T16:47:32.005Z,100423.25
2023-02-17T16:49:37.935Z,100434.56
2023-02-17T16:51:39.454Z,100399.84
2023-02-17T16:53:41.072Z,100436.66
2023-02-17T16:55:43.267Z,100437.31
2023-02-17T16:57:46.130Z,100442.16
2023-02-17T16:59:49.524Z,100472.09
2023-02-17T17:01:52.296Z,100457.69
2023-02-17T17:03:53.906Z,100466.69
2023-02-17T17:05:55.705Z,100475.47
2023-02-17T17:07:57.777Z,100472.78
2023-02-17T17:10:15.472Z,100462.94
2023-02-17T17:12:19.350Z,100481.78
2023-02-17T17:14:21.882Z,100478.66
2023-02-17T17:16:28.420Z,100492.06
2023-02-17T17:18:30.017Z,100479.28
2023-02-17T17:20:33.800Z,100478.47
2023-02-17T17:22:35.563Z,100484.31
2023-02-17T17:24:37.393Z,100476.59
2023-02-17T17:26:41.742Z,100511.72
2023-02-17T17:28:43.406Z,100493.13
2023-02-17T17:30:46.040Z,100487.91
2023-02-17T17:35:01.884Z,100539.09
2023-02-17T17:37:04.727Z,100515.06
2023-02-17T17:39:09.367Z,100538.91
2023-02-17T17:41:13.189Z,100518.84
2023-02-17T17:43:15.534Z,100537.84
2023-02-17T17:45:17.809Z,100538.91
2023-02-17T17:47:29.338Z,100517.81
2023-02-17T17:49:31.979Z,100530.97
2023-02-17T17:51:33.733Z,100506.28
2023-02-17T17:53:36.624Z,100546.25
2023-02-17T17:55:38.148Z,100518.22
2023-02-17T17:57:40.315Z,100547.47
2023-02-17T17:59:41.880Z,100550.41
2023-02-17T18:01:45.767Z,100539.31
2023-02-17T18:03:48.406Z,100539.75
2023-02-17T18:05:49.972Z,100544.34
2023-02-17T18:07:52.096Z,100561.88
2023-02-17T18:09:55.371Z,100533.88
2023-02-17T18:11:59.124Z,100543.91
2023-02-17T18:14:04.132Z,100583.81
2023-02-17T18:16:06.531Z,100578.38
2023-02-17T18:18:10.649Z,100576.50
2023-02-17T18:20:13.214Z,100577.72
2023-02-17T18:22:15.196Z,100558.53
2023-02-17T18:24:17.058Z,100547.03
2023-02-17T18:26:20.155Z,100580.44
2023-02-17T18:28:21.933Z,100567.09
2023-02-17T18:30:24.124Z,100573.75
2023-02-17T18:32:25.951Z,100559.75
2023-02-17T18:34:27.538Z,100570.59
2023-02-17T18:36:29.299Z,100580.22
2023-02-17T18:38:30.870Z,100566.84
2023-02-17T18:40:33.007Z,100594.63
2023-02-17T18:42:35.944Z,100554.72
2023-02-17T18:44:37.546Z,100575.81
2023-02-17T18:46:39.905Z,100587.91
2023-02-17T18:48:42.487Z,100587.50
2023-02-17T18:50:44.106Z,100568.09
2023-02-17T18:52:45.714Z,100567.44
2023-02-17T18:54:47.537Z,100596.47
2023-02-17T18:56:49.304Z,100553.69
2023-02-17T18:58:53.497Z,100569.97
2023-02-17T19:00:55.408Z,100586.63
2023-02-17T19:02:56.932Z,100576.00
2023-02-17T19:04:58.716Z,100589.75
2023-02-17T19:07:00.637Z,100615.22
2023-02-17T19:09:03.520Z,100592.69
2023-02-17T19:11:05.483Z,100586.00
2023-02-17T19:13:07.110Z,100625.03
2023-02-17T19:15:10.695Z,100596.84
2023-02-17T19:17:12.766Z,100587.88
2023-02-17T19:19:14.831Z,100580.31
2023-02-17T19:21:16.581Z,100595.78
2023-02-17T19:23:18.779Z,100595.16
2023-02-17T19:25:20.330Z,100616.03
2023-02-17T19:27:22.079Z,100594.31
2023-02-17T19:29:23.862Z,100598.28
2023-02-17T19:31:26.997Z,100588.22
2023-02-17T19:33:28.840Z,100587.59
2023-02-17T19:35:30.643Z,100613.06
2023-02-17T19:37:32.156Z,100608.03
2023-02-17T19:39:35.405Z,100601.16
2023-02-17T19:41:36.926Z,100606.78
2023-02-17T19:43:38.974Z,100586.31
2023-02-17T19:45:40.631Z,100628.25
2023-02-17T19:47:43.765Z,100621.56
2023-02-17T19:49:45.333Z,100601.91
2023-02-17T19:51:47.064Z,100619.03
2023-02-17T19:53:48.783Z,100620.91
2023-02-17T19:55:50.702Z,100618.19
2023-02-17T19:57:52.974Z,100611.72
2023-02-17T19:59:54.515Z,100617.97
2023-02-17T20:01:56.608Z,100646.53
2023-02-17T20:04:03.645Z,100627.72
2023-02-17T20:06:07.885Z,100642.53
2023-02-17T20:08:09.565Z,100625.41
2023-02-17T20:10:12.822Z,100604.75
2023-02-17T20:12:14.407Z,100657.72
2023-02-17T20:14:16.071Z,100640.41
2023-02-17T20:16:18.745Z,100630.81
2023-02-17T20:18:20.323Z,100667.09
2023-02-17T20:20:23.279Z,100656.44
2023-02-17T20:22:24.812Z,100625.31
2023-02-17T20:24:26.672Z,100651.63
2023-02-17T20:26:30.949Z,100644.53
2023-02-17T20:28:32.898Z,100629.28
2023-02-17T20:30:34.796Z,100654.09
2023-02-17T20:32:36.471Z,100670.34
2023-02-17T20:34:39.393Z,100659.50
2023-02-17T20:36:42.377Z,100679.09
2023-02-17T20:38:44.621Z,100657.81
2023-02-17T20:40:46.479Z,100671.59
2023-02-17T20:42:48.038Z,100677.19
2023-02-17T20:44:49.658Z,100673.00
2023-02-17T20:46:51.537Z,100654.88
2023-02-17T20:48:54.390Z,100669.25
2023-02-17T20:50:57.246Z,100676.75
2023-02-17T20:53:00.220Z,100664.88
2023-02-17T20:55:02.153Z,100700.31
2023-02-17T20:57:03.944Z,100685.28
2023-02-17T20:59:08.624Z,100672.56
2023-02-17T21:01:10.513Z,100713.59
2023-02-17T21:03:12.148Z,100701.94
2023-02-17T21:05:15.833Z,100696.53
2023-02-17T21:07:19.868Z,100693.16
2023-02-17T21:09:22.821Z,100739.22
2023-02-17T21:11:24.921Z,100723.97
2023-02-17T21:13:27.964Z,100725.69
2023-02-17T21:15:30.656Z,100722.13
2023-02-17T21:17:32.207Z,100737.50
2023-02-17T21:19:33.735Z,100730.25
2023-02-17T21:21:35.791Z,100751.66
2023-02-17T21:23:37.560Z,100756.25
2023-02-17T21:25:40.521Z,100756.44
2023-02-17T21:27:42.502Z,100742.44
2023-02-17T21:29:44.023Z,100722.44
2023-02-17T21:31:45.671Z,100745.81
2023-02-17T21:33:47.300Z,100750.56
2023-02-17T21:35:49.290Z,100747.22
2023-02-17T21:37:51.100Z,100770.75
2023-02-17T21:39:52.899Z,100765.34
2023-02-17T21:41:55.779Z,100758.91
2023-02-17T21:43:57.399Z,100769.09
2023-02-17T21:45:58.943Z,100798.88
2023-02-17T21:48:00.475Z,100782.00
2023-02-17T21:50:02.231Z,100781.78
2023-02-17T21:52:03.944Z,100814.50
2023-02-17T21:54:06.445Z,100796.28
2023-02-17T21:56:08.366Z,100809.44
2023-02-17T21:58:11.930Z,100790.31
2023-02-17T22:00:15.062Z,100793.69
2023-02-17T22:02:16.690Z,100807.41
2023-02-17T22:04:18.664Z,100811.53
2023-02-17T22:06:22.010Z,100807.59
2023-02-17T22:08:23.811Z,100820.28
2023-02-17T22:10:25.679Z,100830.50
2023-02-17T22:12:28.152Z,100843.88
2023-02-17T22:14:31.181Z,100841.16
2023-02-17T22:16:36.316Z,100847.78
2023-02-17T22:18:38.744Z,100854.25
2023-02-17T22:20:43.251Z,100832.28
2023-02-17T22:22:44.913Z,100864.63
2023-02-17T22:24:46.524Z,100845.66
2023-02-17T22:26:49.510Z,100859.38
2023-02-17T22:28:51.726Z,100873.31
2023-02-17T22:30:54.628Z,100902.28
2023-02-17T22:32:56.201Z,100882.09
2023-02-17T22:34:58.124Z,100872.75
2023-02-17T22:36:59.810Z,100893.94
2023-02-17T22:39:03.543Z,100890.22
2023-02-17T22:41:06.218Z,100882.94
2023-02-17T22:43:07.800Z,100892.28
2023-02-17T22:45:09.642Z,100899.75
2023-02-17T22:47:12.553Z,100902.28
2023-02-17T22:49:14.430Z,100899.34
2023-02-17T22:51:19.400Z,100903.97
2023-02-17T22:53:21.522Z,100913.28
2023-02-17T22:55:23.383Z,100898.91
2023-02-17T22:57:25.103Z,100940.38
2023-02-17T22:59:27.366Z,100918.72
2023-02-17T23:01:31.866Z,100931.16
2023-02-17T23:03:35.345Z,100947.88
2023-02-17T23:05:37.240Z,100968.53
2023-02-17T23:07:38.832Z,100944.31
2023-02-17T23:09:40.745Z,100970.00
2023-02-17T23:11:42.364Z,100970.38
2023-02-17T23:13:44.701Z,100954.31
2023-02-17T23:15:46.551Z,100952.44
2023-02-17T23:17:48.079Z,100954.50
2023-02-17T23:19:51.003Z,100962.81
2023-02-17T23:21:55.121Z,100965.69
2023-02-17T23:23:56.653Z,100965.91
2023-02-17T23:25:58.362Z,100968.63
2023-02-17T23:28:00.898Z,100987.38
2023-02-17T23:30:02.439Z,100971.97
2023-02-17T23:32:05.055Z,100988.59
2023-02-17T23:34:07.600Z,100979.44
2023-02-17T23:36:11.298Z,100993.16
2023-02-17T23:38:14.140Z,100992.31